Friday, October 19, 2018, 10:15 PM GMT
Back to Local

CWST, La Pocatiere

Location: , , Canada Lat: 47.35
Local Time: 10:15 PM GMT (22:15 GMT) Lon: -70.033
Time Zone: GMT Elev: 101 ft

Show me the last for .
Show Coded

Time T Td Feel RH Dir Speed Gust Alt SLP Vis Weather Sky Remarks
2018-10-19 22:00 42 35 36 77 170° 9 - - 29.72 0 None
2018-10-19 21:00 43 36 39 76 170° 6 - - 29.73 0 None
2018-10-19 20:00 42 35 39 75 190° 5 - - 29.76 0 None
2018-10-19 19:00 41 34 35 75 190° 8 - - 29.80 0 None
2018-10-19 18:00 39 32 34 75 200° 6 - - 29.83 0 None
2018-10-19 17:00 37 32 30 79 160° 10 - - 29.87 0 None
2018-10-19 16:00 36 31 30 80 180° 8 - - 29.91 0 None
2018-10-19 15:00 34 30 28 83 160° 7 - - 29.94 0 None
2018-10-19 14:00 32 29 25 90 160° 7 - - 29.98 0 None
2018-10-19 13:00 32 29 26 87 190° 6 - - 30.01 0 None
2018-10-19 12:00 32 28 - 87 170° 2 - - 30.03 0 None
2018-10-19 11:00 33 28 29 80 200° 5 - - 30.03 0 None
2018-10-19 10:00 32 25 26 74 200° 6 - - 30.04 0 None
2018-10-19 09:00 33 24 - 68 210° 2 - - 30.05 0 None
2018-10-19 08:00 32 20 27 61 290° 5 - - 30.05 0 None
2018-10-19 07:00 32 19 27 57 290° 5 - - 30.06 0 None
2018-10-19 06:00 32 18 24 55 300° 9 - - 30.08 0 None
2018-10-19 05:00 32 19 25 57 290° 8 - - 30.09 0 None
2018-10-19 04:00 31 18 24 57 290° 8 - - 30.09 0 None
2018-10-19 03:00 33 17 24 52 290° 12 - - 30.11 0 None
2018-10-19 02:00 33 16 22 48 290° 13 18 - 30.10 0 Peak wind: 19 mph (17 kts) from 310° at 34 min
2018-10-19 01:00 33 16 22 48 300° 13 21 - 30.10 0 Peak wind: 20 mph (18 kts) from 320° at 59 min
2018-10-19 00:00 34 15 23 46 280° 10 17 - 30.10 0 Peak wind: 21 mph (19 kts) from 280° at 16 min
2018-10-18 23:00 35 15 23 43 300° 14 22 - 30.09 0 Peak wind: 21 mph (19 kts) from 300° at 36 min

Support USWX by starting your Amazon purchase here.